Time;durP1;ratioP1;P1;durP2;ratioP2;P2;SDS_P1;SDS_P2;PMS_P1;PMS_P2;Temp;Humidity;BMP_temperature;BMP_pressure;BME280_temperature;BME280_humidity;BME280_pressure;Samples;Min_cycle;Max_cycle;Signal;HPM_P1;HPM_P2
2021/12/30 00:02:24;;;;;;;31.13;16.60;;;;;;;;;;5055194;28;20037;-56
2021/12/30 00:04:50;;;;;;;28.52;15.75;;;;;;;;;;5058419;28;20068;-56
2021/12/30 00:07:16;;;;;;;30.25;16.58;;;;;;;;;;5059037;28;20409;-56
2021/12/30 00:09:42;;;;;;;27.63;15.98;;;;;;;;;;5052199;28;20041;-55
2021/12/30 00:12:08;;;;;;;28.40;16.02;;;;;;;;;;5062723;28;20123;-52
2021/12/30 00:14:34;;;;;;;31.73;16.98;;;;;;;;;;5049137;28;20037;-54
2021/12/30 00:16:59;;;;;;;30.73;17.70;;;;;;;;;;5055923;28;20090;-56
2021/12/30 00:19:25;;;;;;;30.17;16.52;;;;;;;;;;5058297;28;20044;-56
2021/12/30 00:21:51;;;;;;;29.65;16.35;;;;;;;;;;5052612;28;20065;-57
2021/12/30 00:24:17;;;;;;;25.92;16.08;;;;;;;;;;5056980;28;20044;-55
2021/12/30 00:26:42;;;;;;;30.88;17.67;;;;;;;;;;5054354;28;20063;-52
2021/12/30 00:29:08;;;;;;;33.20;17.83;;;;;;;;;;5052771;28;20070;-52
2021/12/30 00:31:34;;;;;;;33.33;16.85;;;;;;;;;;5058151;28;20091;-55
2021/12/30 00:34:00;;;;;;;31.23;17.67;;;;;;;;;;5051573;28;20032;-52
2021/12/30 00:36:26;;;;;;;28.67;16.42;;;;;;;;;;5058400;28;20037;-53
2021/12/30 00:38:52;;;;;;;26.33;15.13;;;;;;;;;;5054156;28;20075;-55
2021/12/30 00:41:19;;;;;;;25.25;14.40;;;;;;;;;;5053990;28;20091;-50
2021/12/30 00:43:45;;;;;;;29.85;16.45;;;;;;;;;;5057629;28;20130;-56
2021/12/30 00:46:11;;;;;;;25.65;15.27;;;;;;;;;;5051421;28;20044;-55
2021/12/30 00:48:37;;;;;;;26.08;15.27;;;;;;;;;;5057553;28;20767;-53
2021/12/30 00:51:04;;;;;;;27.92;15.93;;;;;;;;;;5054448;28;20048;-53
2021/12/30 00:53:30;;;;;;;28.58;15.45;;;;;;;;;;5055001;28;20052;-55
2021/12/30 00:55:55;;;;;;;24.75;15.05;;;;;;;;;;5057399;28;20408;-53
2021/12/30 00:58:21;;;;;;;26.33;15.57;;;;;;;;;;5051383;28;20075;-54
2021/12/30 01:00:47;;;;;;;29.40;16.83;;;;;;;;;;5059987;28;20115;-55
2021/12/30 01:03:14;;;;;;;25.80;14.57;;;;;;;;;;5053608;28;20071;-57
2021/12/30 01:05:39;;;;;;;23.85;14.43;;;;;;;;;;5053560;28;20060;-56
2021/12/30 01:08:08;;;;;;;25.88;13.98;;;;;;;;;;5056977;28;20110;-54
2021/12/30 01:10:36;;;;;;;20.70;14.05;;;;;;;;;;5043864;28;20496;-53
2021/12/30 01:13:07;;;;;;;22.77;13.95;;;;;;;;;;5055051;28;20041;-57
2021/12/30 01:15:58;;;;;;;25.67;14.55;;;;;;;;;;5044079;28;20037;-54
2021/12/30 01:18:34;;;;;;;63.22;16.80;;;;;;;;;;5058485;28;20133;-55
2021/12/30 01:21:01;;;;;;;23.42;13.75;;;;;;;;;;5053263;28;20040;-55
2021/12/30 01:23:27;;;;;;;20.40;13.25;;;;;;;;;;5055077;28;20040;-56
2021/12/30 01:25:55;;;;;;;22.52;14.38;;;;;;;;;;5057393;28;20075;-55
2021/12/30 01:28:21;;;;;;;19.98;14.20;;;;;;;;;;5051312;28;20045;-51
2021/12/30 01:30:48;;;;;;;19.42;13.75;;;;;;;;;;5060159;28;20029;-55
2021/12/30 01:33:14;;;;;;;20.95;14.27;;;;;;;;;;5052981;28;20033;-55
2021/12/30 01:35:39;;;;;;;22.45;14.57;;;;;;;;;;5056958;28;20064;-54
2021/12/30 01:38:11;;;;;;;21.05;13.65;;;;;;;;;;5056242;28;20041;-57
2021/12/30 01:40:36;;;;;;;19.60;12.40;;;;;;;;;;5050795;28;20737;-55
2021/12/30 01:43:02;;;;;;;21.48;13.43;;;;;;;;;;5060802;28;20036;-51
2021/12/30 01:45:28;;;;;;;20.38;13.50;;;;;;;;;;5053658;28;21158;-55
2021/12/30 01:47:54;;;;;;;19.73;13.48;;;;;;;;;;5053768;28;20036;-52
2021/12/30 01:50:21;;;;;;;20.23;13.95;;;;;;;;;;5056797;28;20182;-56
2021/12/30 01:52:47;;;;;;;19.27;12.40;;;;;;;;;;5049973;28;20032;-55
2021/12/30 01:55:15;;;;;;;20.95;13.27;;;;;;;;;;5057621;28;20052;-53
2021/12/30 01:57:41;;;;;;;19.73;13.52;;;;;;;;;;5052396;28;20048;-52
2021/12/30 02:00:11;;;;;;;21.27;12.95;;;;;;;;;;5051746;28;20127;-54
2021/12/30 02:02:37;;;;;;;16.55;12.05;;;;;;;;;;5055923;28;20579;-53
2021/12/30 02:05:03;;;;;;;18.30;12.27;;;;;;;;;;5050932;28;20047;-57
2021/12/30 02:07:29;;;;;;;18.10;12.00;;;;;;;;;;5055949;28;20412;-57
2021/12/30 02:10:00;;;;;;;16.92;12.57;;;;;;;;;;5052564;28;20131;-51
2021/12/30 02:12:26;;;;;;;17.77;12.15;;;;;;;;;;5053380;28;20080;-58
2021/12/30 02:14:52;;;;;;;17.27;12.02;;;;;;;;;;5055318;28;20039;-55
2021/12/30 02:17:18;;;;;;;19.00;13.27;;;;;;;;;;5049790;28;20500;-56
2021/12/30 02:19:44;;;;;;;17.92;12.43;;;;;;;;;;5057604;28;20089;-52
2021/12/30 02:22:09;;;;;;;18.30;12.82;;;;;;;;;;5051610;28;20037;-57
2021/12/30 02:24:44;;;;;;;17.60;12.10;;;;;;;;;;5056495;28;20040;-56
2021/12/30 02:27:10;;;;;;;18.75;12.68;;;;;;;;;;5055006;28;20131;-56
2021/12/30 02:29:35;;;;;;;17.92;12.50;;;;;;;;;;5049145;28;20065;-54
2021/12/30 02:32:01;;;;;;;17.15;12.57;;;;;;;;;;5058560;28;20389;-52
2021/12/30 02:34:27;;;;;;;16.45;12.13;;;;;;;;;;5049726;28;20119;-51
2021/12/30 02:36:52;;;;;;;18.80;12.90;;;;;;;;;;5055401;28;20730;-50
2021/12/30 02:39:21;;;;;;;17.60;12.60;;;;;;;;;;5056887;28;20045;-53
2021/12/30 02:41:47;;;;;;;18.45;11.77;;;;;;;;;;5050552;28;20040;-52
2021/12/30 02:44:13;;;;;;;20.30;12.52;;;;;;;;;;5058930;28;20048;-53
2021/12/30 02:46:40;;;;;;;19.55;12.27;;;;;;;;;;5051086;28;20507;-48
2021/12/30 02:49:06;;;;;;;15.45;11.48;;;;;;;;;;5055576;28;20090;-54
2021/12/30 02:51:33;;;;;;;16.95;12.07;;;;;;;;;;5054186;28;20500;-57
2021/12/30 02:53:59;;;;;;;16.08;11.30;;;;;;;;;;5051990;28;20827;-56
2021/12/30 02:56:26;;;;;;;17.73;12.40;;;;;;;;;;5058112;28;20082;-56
2021/12/30 02:58:52;;;;;;;20.50;12.18;;;;;;;;;;5050861;28;20072;-55
2021/12/30 03:01:29;;;;;;;17.15;12.35;;;;;;;;;;5056487;28;20469;-57
2021/12/30 03:03:56;;;;;;;16.83;12.45;;;;;;;;;;5053261;28;20528;-56
2021/12/30 03:06:22;;;;;;;17.27;12.30;;;;;;;;;;5053536;28;20051;-58
2021/12/30 03:08:49;;;;;;;20.00;12.70;;;;;;;;;;5056772;28;20535;-55
2021/12/30 03:11:16;;;;;;;17.40;12.73;;;;;;;;;;5050528;28;20052;-54
2021/12/30 03:13:44;;;;;;;17.00;12.07;;;;;;;;;;5056743;28;20047;-55
2021/12/30 03:16:13;;;;;;;20.02;13.15;;;;;;;;;;5053439;28;20044;-54
2021/12/30 03:18:39;;;;;;;18.17;12.93;;;;;;;;;;5054105;28;20431;-55
2021/12/30 03:21:07;;;;;;;20.60;13.38;;;;;;;;;;5056422;28;20529;-55
2021/12/30 03:23:33;;;;;;;20.85;13.18;;;;;;;;;;5049491;28;20037;-52
2021/12/30 03:25:59;;;;;;;18.17;12.75;;;;;;;;;;5056801;28;20043;-54
2021/12/30 03:28:25;;;;;;;20.60;13.68;;;;;;;;;;5052591;28;20036;-54
2021/12/30 03:30:51;;;;;;;18.70;12.98;;;;;;;;;;5049757;28;20049;-54
2021/12/30 03:33:17;;;;;;;20.63;13.85;;;;;;;;;;5056026;28;20512;-54
2021/12/30 03:35:43;;;;;;;19.60;13.18;;;;;;;;;;5051323;28;20079;-55
2021/12/30 03:38:09;;;;;;;23.48;14.20;;;;;;;;;;5057566;28;20151;-53
2021/12/30 03:40:35;;;;;;;18.05;12.60;;;;;;;;;;5048043;28;20064;-53
2021/12/30 03:43:02;;;;;;;18.70;13.05;;;;;;;;;;5054058;28;20492;-53
2021/12/30 03:45:27;;;;;;;17.40;12.18;;;;;;;;;;5054464;28;20045;-54
2021/12/30 03:47:53;;;;;;;17.35;12.93;;;;;;;;;;5053912;28;20861;-54
2021/12/30 03:50:23;;;;;;;18.23;12.27;;;;;;;;;;5058974;28;20546;-56
2021/12/30 03:52:52;;;;;;;17.27;12.00;;;;;;;;;;5055465;28;20041;-56
2021/12/30 03:55:20;;;;;;;16.70;11.55;;;;;;;;;;5053367;28;20037;-54
2021/12/30 03:57:45;;;;;;;15.90;10.38;;;;;;;;;;5058445;28;20029;-56
2021/12/30 04:00:12;;;;;;;15.82;12.07;;;;;;;;;;5056227;28;20579;-57
2021/12/30 04:02:37;;;;;;;16.83;11.90;;;;;;;;;;5059678;28;20115;-55
2021/12/30 04:05:04;;;;;;;15.80;11.38;;;;;;;;;;5055304;28;20036;-54
2021/12/30 04:07:29;;;;;;;15.35;11.32;;;;;;;;;;5055774;28;20759;-55
2021/12/30 04:09:55;;;;;;;17.20;11.95;;;;;;;;;;5058112;28;20055;-54
2021/12/30 04:12:21;;;;;;;17.75;11.77;;;;;;;;;;5052526;28;20045;-54
2021/12/30 04:14:47;;;;;;;16.77;12.35;;;;;;;;;;5060767;28;20488;-56
2021/12/30 04:17:12;;;;;;;16.65;12.07;;;;;;;;;;5053448;28;20527;-55
2021/12/30 04:19:38;;;;;;;18.17;12.77;;;;;;;;;;5056359;28;20060;-55
2021/12/30 04:22:04;;;;;;;19.23;13.05;;;;;;;;;;5057728;28;20432;-54
2021/12/30 04:24:29;;;;;;;23.92;13.93;;;;;;;;;;5052050;28;20048;-56
2021/12/30 04:26:55;;;;;;;22.02;13.27;;;;;;;;;;5061501;28;20113;-53
2021/12/30 04:29:21;;;;;;;25.20;12.82;;;;;;;;;;5054474;28;20171;-52
2021/12/30 04:31:48;;;;;;;24.77;13.55;;;;;;;;;;5057325;28;20043;-51
2021/12/30 04:34:13;;;;;;;27.52;14.57;;;;;;;;;;5056849;28;20385;-54
2021/12/30 04:36:40;;;;;;;24.30;15.02;;;;;;;;;;5051874;28;20044;-54
2021/12/30 04:39:06;;;;;;;30.63;14.63;;;;;;;;;;5059991;28;20044;-52
2021/12/30 04:41:32;;;;;;;30.92;16.35;;;;;;;;;;5054315;28;20043;-50
2021/12/30 04:43:58;;;;;;;30.23;15.90;;;;;;;;;;5057654;28;20028;-54
2021/12/30 04:46:24;;;;;;;29.65;15.65;;;;;;;;;;5057478;28;20500;-53
2021/12/30 04:48:50;;;;;;;32.35;16.23;;;;;;;;;;5052675;28;20048;-58
2021/12/30 04:51:16;;;;;;;31.00;15.60;;;;;;;;;;5061780;28;20124;-52
2021/12/30 04:53:43;;;;;;;32.25;16.08;;;;;;;;;;5053806;28;20592;-54
2021/12/30 04:56:09;;;;;;;37.05;16.15;;;;;;;;;;5058721;28;20036;-54
2021/12/30 04:58:34;;;;;;;33.85;15.68;;;;;;;;;;5056171;28;20056;-52
2021/12/30 05:01:00;;;;;;;33.15;16.63;;;;;;;;;;5052397;28;20041;-54
2021/12/30 05:03:27;;;;;;;33.33;17.02;;;;;;;;;;5056858;28;20156;-55
2021/12/30 05:05:54;;;;;;;32.10;17.25;;;;;;;;;;5052532;28;20524;-53
2021/12/30 05:08:22;;;;;;;36.22;17.92;;;;;;;;;;5051524;28;20040;-56
2021/12/30 05:10:48;;;;;;;38.22;19.27;;;;;;;;;;5056453;28;20033;-56
2021/12/30 05:13:14;;;;;;;37.35;18.73;;;;;;;;;;5050786;28;20029;-56
2021/12/30 05:15:41;;;;;;;41.85;20.33;;;;;;;;;;5057692;28;20056;-52
2021/12/30 05:18:09;;;;;;;34.42;18.13;;;;;;;;;;5053619;28;20033;-57
2021/12/30 05:20:35;;;;;;;35.70;18.73;;;;;;;;;;5053473;28;20492;-54
2021/12/30 05:23:01;;;;;;;49.22;19.80;;;;;;;;;;5055769;28;20041;-54
2021/12/30 05:25:27;;;;;;;42.55;19.55;;;;;;;;;;5051036;28;20043;-55
2021/12/30 05:27:53;;;;;;;40.60;21.05;;;;;;;;;;5059379;28;20500;-56
2021/12/30 05:30:24;;;;;;;47.72;20.70;;;;;;;;;;5052729;28;20076;-53
2021/12/30 05:32:55;;;;;;;49.30;20.05;;;;;;;;;;5055803;28;20037;-54
2021/12/30 05:35:22;;;;;;;40.90;19.50;;;;;;;;;;5055311;28;20041;-53
2021/12/30 05:37:48;;;;;;;47.90;20.20;;;;;;;;;;5049756;28;20037;-56
2021/12/30 05:40:20;;;;;;;44.13;19.42;;;;;;;;;;5059330;28;20048;-57
2021/12/30 05:42:46;;;;;;;42.42;20.55;;;;;;;;;;5052016;28;20474;-55
2021/12/30 05:45:14;;;;;;;49.28;20.95;;;;;;;;;;5061832;28;20064;-55
2021/12/30 05:47:41;;;;;;;38.95;19.58;;;;;;;;;;5054599;28;20040;-59
2021/12/30 05:50:08;;;;;;;44.90;20.95;;;;;;;;;;5052794;28;20044;-53
2021/12/30 05:52:34;;;;;;;40.90;19.65;;;;;;;;;;5055847;28;20029;-56
2021/12/30 05:55:00;;;;;;;41.90;18.95;;;;;;;;;;5050716;28;20048;-56
2021/12/30 05:57:26;;;;;;;38.13;19.38;;;;;;;;;;5055993;28;20058;-56
2021/12/30 05:59:51;;;;;;;32.80;19.00;;;;;;;;;;5054044;28;20045;-56
2021/12/30 06:02:17;;;;;;;34.80;19.67;;;;;;;;;;5053337;28;20113;-49
2021/12/30 06:04:44;;;;;;;35.53;19.75;;;;;;;;;;5057685;28;20071;-54
2021/12/30 06:07:10;;;;;;;42.92;19.30;;;;;;;;;;5051519;28;20055;-54
2021/12/30 06:09:36;;;;;;;39.13;19.55;;;;;;;;;;5049235;28;20045;-51
2021/12/30 06:12:03;;;;;;;37.28;18.85;;;;;;;;;;5052459;28;20033;-55
2021/12/30 06:14:28;;;;;;;37.42;17.42;;;;;;;;;;5054624;28;20036;-52
2021/12/30 06:16:54;;;;;;;34.28;17.90;;;;;;;;;;5056565;28;20051;-54
2021/12/30 06:19:20;;;;;;;33.70;16.92;;;;;;;;;;5050735;28;20571;-55
2021/12/30 06:21:45;;;;;;;34.80;17.58;;;;;;;;;;5059319;28;20107;-57
2021/12/30 06:24:11;;;;;;;35.08;18.33;;;;;;;;;;5053307;28;20562;-56
2021/12/30 06:26:37;;;;;;;34.35;16.73;;;;;;;;;;5054611;28;20047;-52
2021/12/30 06:29:03;;;;;;;36.53;17.40;;;;;;;;;;5056939;28;20039;-57
2021/12/30 06:31:29;;;;;;;37.92;17.02;;;;;;;;;;5054255;28;20461;-54
2021/12/30 06:33:54;;;;;;;32.33;16.80;;;;;;;;;;5055863;28;20115;-55
2021/12/30 06:36:21;;;;;;;36.35;19.15;;;;;;;;;;5053381;28;20045;-53
2021/12/30 06:38:48;;;;;;;39.20;17.30;;;;;;;;;;5049341;28;20443;-55
2021/12/30 06:41:13;;;;;;;37.08;18.83;;;;;;;;;;5055896;28;20036;-57
2021/12/30 06:43:39;;;;;;;32.90;17.08;;;;;;;;;;5050584;28;20037;-56
2021/12/30 06:46:05;;;;;;;31.27;16.73;;;;;;;;;;5054473;28;20846;-55
2021/12/30 06:48:31;;;;;;;41.78;19.23;;;;;;;;;;5052973;28;20073;-57
2021/12/30 06:51:00;;;;;;;39.15;17.48;;;;;;;;;;5051472;28;20045;-55
2021/12/30 06:53:25;;;;;;;31.77;16.30;;;;;;;;;;5056264;28;20090;-54
2021/12/30 06:55:53;;;;;;;35.88;18.50;;;;;;;;;;5049603;28;20472;-55
2021/12/30 06:58:20;;;;;;;36.92;17.92;;;;;;;;;;5055589;28;20126;-57
2021/12/30 07:00:47;;;;;;;35.85;18.20;;;;;;;;;;5053097;28;20041;-56
2021/12/30 07:03:13;;;;;;;32.28;17.23;;;;;;;;;;5051263;28;20041;-56
2021/12/30 07:05:38;;;;;;;47.80;18.67;;;;;;;;;;5055804;28;20073;-57
2021/12/30 07:08:04;;;;;;;34.65;17.27;;;;;;;;;;5052206;28;20060;-58
2021/12/30 07:10:30;;;;;;;40.58;18.35;;;;;;;;;;5060218;28;20439;-57
2021/12/30 07:12:56;;;;;;;44.08;19.10;;;;;;;;;;5056486;28;20123;-56
2021/12/30 07:15:22;;;;;;;47.17;19.30;;;;;;;;;;5056335;28;20068;-52
2021/12/30 07:17:48;;;;;;;36.90;18.40;;;;;;;;;;5060748;28;20059;-56
2021/12/30 07:20:14;;;;;;;39.38;17.65;;;;;;;;;;5053754;28;20045;-57
2021/12/30 07:22:40;;;;;;;42.38;17.63;;;;;;;;;;5060736;28;20052;-51
2021/12/30 07:25:06;;;;;;;36.17;18.48;;;;;;;;;;5058758;28;20376;-48
2021/12/30 07:27:32;;;;;;;41.67;18.75;;;;;;;;;;5056568;28;20518;-48
2021/12/30 07:29:59;;;;;;;33.05;18.15;;;;;;;;;;5058971;28;20036;-49
2021/12/30 07:32:25;;;;;;;40.88;18.45;;;;;;;;;;5053540;28;20041;-52
2021/12/30 07:34:51;;;;;;;39.22;18.35;;;;;;;;;;5062471;28;20568;-49
2021/12/30 07:37:17;;;;;;;32.42;18.85;;;;;;;;;;5055992;28;20132;-46
2021/12/30 07:39:43;;;;;;;42.83;19.08;;;;;;;;;;5057656;28;20032;-50
2021/12/30 07:42:09;;;;;;;38.25;17.50;;;;;;;;;;5059191;28;20033;-49
2021/12/30 07:44:34;;;;;;;38.40;17.73;;;;;;;;;;5052280;28;20033;-49
2021/12/30 07:47:00;;;;;;;38.17;17.65;;;;;;;;;;5061820;28;20064;-48
2021/12/30 07:49:26;;;;;;;31.70;16.17;;;;;;;;;;5055298;28;20736;-50
2021/12/30 07:51:52;;;;;;;38.55;18.05;;;;;;;;;;5058800;28;20407;-50
2021/12/30 07:54:17;;;;;;;38.88;17.02;;;;;;;;;;5059156;28;20041;-47
2021/12/30 07:56:43;;;;;;;35.50;15.75;;;;;;;;;;5053137;28;20100;-47
2021/12/30 07:59:09;;;;;;;35.80;17.35;;;;;;;;;;5062031;28;20036;-52
2021/12/30 08:01:35;;;;;;;34.50;17.13;;;;;;;;;;5054855;28;20496;-47
2021/12/30 08:04:00;;;;;;;36.67;17.67;;;;;;;;;;5059267;28;20040;-49
2021/12/30 08:06:28;;;;;;;48.63;19.20;;;;;;;;;;5058677;28;20456;-47
2021/12/30 08:08:54;;;;;;;38.70;18.90;;;;;;;;;;5056622;28;20040;-47
2021/12/30 08:11:20;;;;;;;35.90;18.20;;;;;;;;;;5057210;28;20184;-47
2021/12/30 08:13:46;;;;;;;36.63;18.35;;;;;;;;;;5056673;28;20579;-50
2021/12/30 08:16:13;;;;;;;36.85;17.05;;;;;;;;;;5053839;28;20067;-51
2021/12/30 08:18:39;;;;;;;37.33;17.48;;;;;;;;;;5056729;28;20397;-48
2021/12/30 08:21:05;;;;;;;38.28;17.25;;;;;;;;;;5052714;28;20028;-51
2021/12/30 08:23:30;;;;;;;37.20;17.27;;;;;;;;;;5058487;28;20090;-51
2021/12/30 08:25:56;;;;;;;41.67;16.83;;;;;;;;;;5055613;28;20098;-45
2021/12/30 08:28:22;;;;;;;39.17;17.38;;;;;;;;;;5055184;28;20072;-48
2021/12/30 08:30:47;;;;;;;37.40;15.95;;;;;;;;;;5060982;28;20109;-47
2021/12/30 08:33:13;;;;;;;31.85;15.85;;;;;;;;;;5061044;28;20095;-47
2021/12/30 08:35:39;;;;;;;32.03;17.27;;;;;;;;;;5059417;28;20488;-48
2021/12/30 08:38:05;;;;;;;29.70;14.80;;;;;;;;;;5054653;28;20036;-47
2021/12/30 08:40:31;;;;;;;29.92;16.60;;;;;;;;;;5053650;28;20044;-49
2021/12/30 08:42:56;;;;;;;35.85;17.05;;;;;;;;;;5061007;28;20044;-51
2021/12/30 08:45:22;;;;;;;30.10;15.45;;;;;;;;;;5051838;28;20575;-48
2021/12/30 08:47:48;;;;;;;36.40;15.80;;;;;;;;;;5060037;28;20091;-48
2021/12/30 08:50:16;;;;;;;28.58;14.20;;;;;;;;;;5054203;28;20047;-45
2021/12/30 08:52:43;;;;;;;28.05;14.48;;;;;;;;;;5061468;28;20407;-48
2021/12/30 08:55:10;;;;;;;26.35;15.00;;;;;;;;;;5057108;28;20147;-51
2021/12/30 08:57:38;;;;;;;32.08;15.45;;;;;;;;;;5050702;28;20747;-52
2021/12/30 09:00:06;;;;;;;31.55;15.90;;;;;;;;;;5060562;28;20045;-49
2021/12/30 09:02:32;;;;;;;30.88;14.68;;;;;;;;;;5053094;28;20044;-45
2021/12/30 09:04:57;;;;;;;22.50;13.50;;;;;;;;;;5058103;28;20032;-49
2021/12/30 09:07:23;;;;;;;24.50;14.93;;;;;;;;;;5056424;28;20040;-51
2021/12/30 09:09:49;;;;;;;24.35;14.35;;;;;;;;;;5058172;28;20052;-50
2021/12/30 09:12:16;;;;;;;27.45;13.93;;;;;;;;;;5060656;28;20047;-46
2021/12/30 09:14:41;;;;;;;23.80;13.93;;;;;;;;;;5052996;28;20041;-48
2021/12/30 09:17:07;;;;;;;28.65;14.98;;;;;;;;;;5054209;28;20148;-51
2021/12/30 09:19:33;;;;;;;27.52;14.32;;;;;;;;;;5055621;28;20033;-46
2021/12/30 09:21:58;;;;;;;25.65;14.82;;;;;;;;;;5052428;28;20087;-49
2021/12/30 09:24:24;;;;;;;24.63;13.88;;;;;;;;;;5059839;28;20048;-47
2021/12/30 09:26:50;;;;;;;24.13;14.10;;;;;;;;;;5053711;28;20036;-50
2021/12/30 09:29:16;;;;;;;23.00;13.52;;;;;;;;;;5058601;28;20064;-51
2021/12/30 09:31:44;;;;;;;24.60;13.45;;;;;;;;;;5058399;28;20071;-48
2021/12/30 09:34:10;;;;;;;28.23;14.18;;;;;;;;;;5054233;28;20550;-48
2021/12/30 09:36:37;;;;;;;25.45;14.07;;;;;;;;;;5057861;28;20116;-48
2021/12/30 09:39:07;;;;;;;23.55;13.52;;;;;;;;;;5051758;28;20025;-51
2021/12/30 09:41:34;;;;;;;26.30;14.07;;;;;;;;;;5053941;28;20083;-47
2021/12/30 09:44:00;;;;;;;21.92;11.85;;;;;;;;;;5053536;28;20036;-50
2021/12/30 09:46:25;;;;;;;22.23;14.27;;;;;;;;;;5050594;28;20095;-48
2021/12/30 09:48:51;;;;;;;25.88;13.63;;;;;;;;;;5058639;28;20682;-47
2021/12/30 09:51:17;;;;;;;21.83;12.63;;;;;;;;;;5053281;28;20067;-48
2021/12/30 09:53:43;;;;;;;23.73;12.93;;;;;;;;;;5054842;28;20044;-46
2021/12/30 09:56:08;;;;;;;20.65;13.10;;;;;;;;;;5057408;28;20029;-47
2021/12/30 09:58:34;;;;;;;24.48;11.95;;;;;;;;;;5051965;28;20098;-49
2021/12/30 10:01:00;;;;;;;18.27;11.60;;;;;;;;;;5059447;28;20032;-48
2021/12/30 10:03:27;;;;;;;25.20;12.90;;;;;;;;;;5054099;28;20110;-45
2021/12/30 10:05:53;;;;;;;22.77;11.75;;;;;;;;;;5056346;28;20435;-48
2021/12/30 10:08:25;;;;;;;23.70;12.40;;;;;;;;;;5055019;28;20041;-47
2021/12/30 10:10:56;;;;;;;23.23;12.00;;;;;;;;;;5054359;28;20029;-53
2021/12/30 10:13:29;;;;;;;23.83;13.52;;;;;;;;;;5056335;28;20772;-47
2021/12/30 10:16:02;;;;;;;24.27;12.10;;;;;;;;;;5052839;28;20049;-45
2021/12/30 10:18:44;;;;;;;22.85;11.32;;;;;;;;;;5056460;28;20411;-47
2021/12/30 10:21:16;;;;;;;20.35;11.30;;;;;;;;;;5052921;28;20029;-47
2021/12/30 10:23:45;;;;;;;22.92;13.80;;;;;;;;;;5053507;28;20087;-52
2021/12/30 10:26:11;;;;;;;21.98;12.88;;;;;;;;;;5055593;28;20576;-46
2021/12/30 10:28:39;;;;;;;20.42;11.90;;;;;;;;;;5055330;28;20047;-49
2021/12/30 10:31:11;;;;;;;23.42;12.80;;;;;;;;;;5058891;28;20043;-47
2021/12/30 10:34:04;;;;;;;22.30;12.65;;;;;;;;;;5051125;28;20132;-47
2021/12/30 10:36:33;;;;;;;23.02;12.13;;;;;;;;;;5057024;28;20445;-47
2021/12/30 10:39:19;;;;;;;22.73;12.48;;;;;;;;;;5053594;28;20790;-47
2021/12/30 10:41:46;;;;;;;23.60;12.60;;;;;;;;;;5052515;28;20043;-47
2021/12/30 10:44:12;;;;;;;25.65;11.90;;;;;;;;;;5055610;28;20539;-51
2021/12/30 10:46:38;;;;;;;20.20;11.30;;;;;;;;;;5049515;28;20045;-48
2021/12/30 10:49:12;;;;;;;20.40;11.13;;;;;;;;;;5058960;28;20044;-45
2021/12/30 10:51:43;;;;;;;23.73;12.55;;;;;;;;;;5051617;28;20037;-47
2021/12/30 10:54:18;;;;;;;22.17;12.57;;;;;;;;;;5056003;28;20039;-42
2021/12/30 10:56:46;;;;;;;20.38;11.98;;;;;;;;;;5054204;28;20063;-46
2021/12/30 10:59:13;;;;;;;20.52;11.20;;;;;;;;;;5054846;28;20551;-49
2021/12/30 11:01:42;;;;;;;22.35;11.82;;;;;;;;;;5057687;28;20084;-48
2021/12/30 11:04:08;;;;;;;22.95;11.77;;;;;;;;;;5049359;28;20128;-43
2021/12/30 11:06:34;;;;;;;20.52;10.40;;;;;;;;;;5056987;28;20113;-40
2021/12/30 11:09:13;;;;;;;20.33;11.20;;;;;;;;;;5050673;28;20044;-46
2021/12/30 11:11:44;;;;;;;19.23;11.57;;;;;;;;;;5053495;28;20430;-43
2021/12/30 11:14:14;;;;;;;18.50;11.10;;;;;;;;;;5055834;28;20500;-45
2021/12/30 11:17:22;;;;;;;20.48;11.05;;;;;;;;;;5049925;28;20047;-49
2021/12/30 11:19:51;;;;;;;19.75;11.43;;;;;;;;;;5057623;28;20044;-49
2021/12/30 11:22:22;;;;;;;22.33;11.75;;;;;;;;;;5066343;28;20045;-50
2021/12/30 11:24:49;;;;;;;23.08;11.63;;;;;;;;;;5053988;28;20122;-44
2021/12/30 11:27:16;;;;;;;25.45;11.65;;;;;;;;;;5053666;28;20099;-48
2021/12/30 11:29:45;;;;;;;24.63;10.65;;;;;;;;;;5049104;28;20463;-41
2021/12/30 11:32:13;;;;;;;17.92;11.40;;;;;;;;;;5055815;28;20060;-46
2021/12/30 11:34:38;;;;;;;21.10;10.50;;;;;;;;;;5053772;28;20034;-47
2021/12/30 11:37:05;;;;;;;19.17;10.43;;;;;;;;;;5055005;28;20124;-44
2021/12/30 11:39:31;;;;;;;23.50;10.30;;;;;;;;;;5052708;28;20091;-42
2021/12/30 11:42:08;;;;;;;18.30;10.15;;;;;;;;;;5049552;28;20401;-45
2021/12/30 11:44:37;;;;;;;18.70;9.75;;;;;;;;;;5055265;28;20062;-47
2021/12/30 11:47:05;;;;;;;20.13;9.60;;;;;;;;;;5049529;28;20115;-46
2021/12/30 11:49:50;;;;;;;24.67;10.40;;;;;;;;;;5055861;28;20483;-46
2021/12/30 11:52:54;;;;;;;18.90;10.05;;;;;;;;;;5052016;28;20045;-47
2021/12/30 11:55:40;;;;;;;18.50;9.57;;;;;;;;;;5059721;28;20441;-45
2021/12/30 11:58:42;;;;;;;20.48;9.93;;;;;;;;;;5054811;28;20089;-48
2021/12/30 12:01:11;;;;;;;19.27;10.23;;;;;;;;;;5061714;28;20075;-48
2021/12/30 12:03:45;;;;;;;22.75;11.02;;;;;;;;;;5059196;28;20401;-46
2021/12/30 12:06:27;;;;;;;22.98;10.27;;;;;;;;;;5058208;28;20415;-46
2021/12/30 12:08:55;;;;;;;21.55;10.60;;;;;;;;;;5061018;28;20037;-50
2021/12/30 12:11:29;;;;;;;20.02;9.95;;;;;;;;;;5054482;28;20075;-48
2021/12/30 12:13:56;;;;;;;20.33;10.60;;;;;;;;;;5066170;28;20408;-49
2021/12/30 12:16:48;;;;;;;18.55;10.48;;;;;;;;;;5059079;28;20036;-43
2021/12/30 12:19:16;;;;;;;25.08;10.80;;;;;;;;;;5060644;28;20526;-46
2021/12/30 12:21:45;;;;;;;25.10;11.63;;;;;;;;;;5058603;28;20055;-51
2021/12/30 12:24:22;;;;;;;26.02;11.20;;;;;;;;;;5063020;28;20028;-52
2021/12/30 12:26:57;;;;;;;25.60;11.60;;;;;;;;;;5064064;28;20381;-52
2021/12/30 12:29:42;;;;;;;20.42;11.38;;;;;;;;;;5057477;28;20063;-46
2021/12/30 12:32:10;;;;;;;19.60;10.50;;;;;;;;;;5060609;28;20055;-47
2021/12/30 12:34:45;;;;;;;20.25;9.82;;;;;;;;;;5059138;28;20512;-49
2021/12/30 12:37:29;;;;;;;28.02;10.43;;;;;;;;;;5057010;28;20040;-46
2021/12/30 12:40:10;;;;;;;22.35;10.68;;;;;;;;;;5057058;28;20132;-49
2021/12/30 12:42:51;;;;;;;20.08;10.27;;;;;;;;;;5058013;28;20115;-47
2021/12/30 12:45:22;;;;;;;21.38;9.63;;;;;;;;;;5057049;28;20697;-49
2021/12/30 12:48:08;;;;;;;23.15;10.05;;;;;;;;;;5053880;28;20044;-47
2021/12/30 12:50:38;;;;;;;24.08;10.85;;;;;;;;;;5057902;28;20040;-48
2021/12/30 12:53:19;;;;;;;27.95;11.10;;;;;;;;;;5053212;28;20025;-50
2021/12/30 12:55:45;;;;;;;24.38;10.57;;;;;;;;;;5055748;28;20086;-51
2021/12/30 12:58:11;;;;;;;29.02;11.13;;;;;;;;;;5056092;28;20048;-43
2021/12/30 13:00:36;;;;;;;23.92;10.50;;;;;;;;;;5050587;28;20504;-47
2021/12/30 13:03:03;;;;;;;20.50;10.40;;;;;;;;;;5061871;28;20036;-48
2021/12/30 13:05:29;;;;;;;24.90;11.15;;;;;;;;;;5053031;28;20152;-45
2021/12/30 13:07:57;;;;;;;21.17;10.00;;;;;;;;;;5056436;28;20106;-49
2021/12/30 13:10:23;;;;;;;23.08;10.75;;;;;;;;;;5055347;28;20048;-46
2021/12/30 13:12:49;;;;;;;27.15;10.35;;;;;;;;;;5052247;28;20037;-42
2021/12/30 13:15:16;;;;;;;22.83;10.40;;;;;;;;;;5059634;28;20045;-42
2021/12/30 13:17:43;;;;;;;22.25;10.35;;;;;;;;;;5052160;28;20616;-48
2021/12/30 13:20:11;;;;;;;28.13;11.60;;;;;;;;;;5056126;28;20495;-46
2021/12/30 13:22:37;;;;;;;24.33;10.15;;;;;;;;;;5054358;28;20040;-56
2021/12/30 13:25:04;;;;;;;21.90;10.32;;;;;;;;;;5052952;28;20040;-47
2021/12/30 13:27:44;;;;;;;30.30;10.82;;;;;;;;;;5056418;28;20063;-48
2021/12/30 13:30:15;;;;;;;26.83;10.98;;;;;;;;;;5051443;28;20136;-40
2021/12/30 13:32:47;;;;;;;18.75;9.85;;;;;;;;;;5056296;28;20044;-47
2021/12/30 13:35:22;;;;;;;21.88;9.90;;;;;;;;;;5055165;28;20055;-46
2021/12/30 13:38:00;;;;;;;22.98;10.38;;;;;;;;;;5055875;28;20512;-47
2021/12/30 13:40:50;;;;;;;28.85;9.75;;;;;;;;;;5055533;28;20041;-47
2021/12/30 13:43:19;;;;;;;25.23;11.23;;;;;;;;;;5053331;28;20037;-44
2021/12/30 13:45:48;;;;;;;23.38;8.98;;;;;;;;;;5058031;28;20033;-45
2021/12/30 13:48:34;;;;;;;23.88;9.93;;;;;;;;;;5051252;28;20075;-48
2021/12/30 13:51:05;;;;;;;18.30;9.50;;;;;;;;;;5056609;28;20060;-46
2021/12/30 13:53:34;;;;;;;21.88;10.18;;;;;;;;;;5053035;28;20029;-45
2021/12/30 13:56:01;;;;;;;20.50;11.27;;;;;;;;;;5054610;28;20040;-45
2021/12/30 13:58:30;;;;;;;23.33;9.85;;;;;;;;;;5055467;28;20036;-47
2021/12/30 14:01:04;;;;;;;23.85;10.13;;;;;;;;;;5051240;28;20039;-53
2021/12/30 14:03:36;;;;;;;19.92;10.18;;;;;;;;;;5054944;28;20483;-46
2021/12/30 14:06:22;;;;;;;21.98;10.25;;;;;;;;;;5049656;28;20037;-50
2021/12/30 14:08:50;;;;;;;;;;;;;;;;;;5059429;28;20045;-47
2021/12/30 14:11:15;;;;;;;18.35;9.07;;;;;;;;;;5053109;28;19971;-46
2021/12/30 14:13:44;;;;;;;19.02;9.38;;;;;;;;;;5054881;28;20503;-49
2021/12/30 14:16:19;;;;;;;21.83;10.00;;;;;;;;;;5056422;28;20045;-47
2021/12/30 14:18:45;;;;;;;17.87;9.17;;;;;;;;;;5050233;28;20408;-48
2021/12/30 14:21:11;;;;;;;16.77;8.82;;;;;;;;;;5054925;28;20527;-47
2021/12/30 14:23:43;;;;;;;17.23;9.02;;;;;;;;;;5051634;28;20043;-51
2021/12/30 14:26:30;;;;;;;16.45;9.77;;;;;;;;;;5051997;28;20035;-48